createdAt,value
2023-01-22T00:02:18.716Z,8.63
2023-01-22T00:04:54.184Z,8.62
2023-01-22T00:07:24.790Z,8.54
2023-01-22T00:09:56.144Z,8.56
2023-01-22T00:12:26.176Z,8.62
2023-01-22T00:14:56.829Z,8.60
2023-01-22T00:17:26.727Z,8.48
2023-01-22T00:19:55.127Z,8.49
2023-01-22T00:22:24.792Z,8.47
2023-01-22T00:24:53.450Z,8.50
2023-01-22T00:27:25.792Z,8.52
2023-01-22T00:29:56.104Z,8.56
2023-01-22T00:32:25.733Z,8.55
2023-01-22T00:34:55.505Z,8.57
2023-01-22T00:37:24.127Z,8.45
2023-01-22T00:39:52.833Z,8.56
2023-01-22T00:42:21.902Z,8.55
2023-01-22T00:44:52.005Z,8.56
2023-01-22T00:47:27.134Z,8.63
2023-01-22T00:49:56.756Z,8.68
2023-01-22T00:52:27.692Z,8.65
2023-01-22T00:54:58.390Z,8.62
2023-01-22T00:57:28.956Z,8.51
2023-01-22T00:59:59.005Z,8.44
2023-01-22T01:02:28.862Z,8.38
2023-01-22T01:04:58.698Z,8.35
2023-01-22T01:07:27.399Z,8.38
2023-01-22T01:09:56.036Z,8.48
2023-01-22T01:12:24.581Z,8.50
2023-01-22T01:14:56.957Z,8.60
2023-01-22T01:17:27.079Z,8.71
2023-01-22T01:19:55.654Z,8.60
2023-01-22T01:22:24.337Z,8.60
2023-01-22T01:24:53.869Z,8.62
2023-01-22T01:27:23.035Z,8.52
2023-01-22T01:29:53.332Z,8.49
2023-01-22T01:32:21.839Z,8.55
2023-01-22T01:34:53.743Z,8.57
2023-01-22T01:37:22.418Z,8.70
2023-01-22T01:39:52.803Z,8.64
2023-01-22T01:42:29.432Z,8.67
2023-01-22T01:45:29.486Z,8.63
2023-01-22T01:48:07.742Z,8.57
2023-01-22T01:50:39.510Z,8.54
2023-01-22T01:53:15.421Z,8.48
2023-01-22T01:55:46.096Z,8.55
2023-01-22T01:58:23.104Z,8.45
2023-01-22T02:01:03.646Z,8.42
2023-01-22T02:03:32.654Z,8.36
2023-01-22T02:06:05.172Z,8.41
2023-01-22T02:08:34.334Z,8.44
2023-01-22T02:11:03.100Z,8.43
2023-01-22T02:13:36.542Z,8.50
2023-01-22T02:16:08.102Z,8.47
2023-01-22T02:18:43.129Z,8.44
2023-01-22T02:21:44.099Z,8.40
2023-01-22T02:24:14.748Z,8.45
2023-01-22T02:26:45.802Z,8.44
2023-01-22T02:29:18.067Z,8.48
2023-01-22T02:31:52.892Z,8.54
2023-01-22T02:34:25.231Z,8.45
2023-01-22T02:36:57.677Z,8.40
2023-01-22T02:39:27.217Z,8.49
2023-01-22T02:41:55.694Z,8.40
2023-01-22T02:44:26.174Z,8.46
2023-01-22T02:46:54.929Z,8.47
2023-01-22T02:49:26.998Z,8.40
2023-01-22T02:52:06.013Z,8.44
2023-01-22T02:54:36.742Z,8.45
2023-01-22T02:57:07.567Z,8.48
2023-01-22T02:59:36.647Z,8.50
2023-01-22T03:02:07.352Z,8.49
2023-01-22T03:04:36.054Z,8.54
2023-01-22T03:07:07.142Z,8.49
2023-01-22T03:09:39.630Z,8.43
2023-01-22T03:12:09.343Z,8.42
2023-01-22T03:14:57.533Z,8.39
2023-01-22T03:17:43.702Z,8.37
2023-01-22T03:20:30.972Z,8.38
2023-01-22T03:23:00.804Z,8.44
2023-01-22T03:25:29.207Z,8.49
2023-01-22T03:28:11.658Z,8.44
2023-01-22T03:30:42.381Z,8.46
2023-01-22T03:33:11.307Z,8.55
2023-01-22T03:35:42.800Z,8.57
2023-01-22T03:38:13.365Z,8.56
2023-01-22T03:40:46.029Z,8.62
2023-01-22T03:43:14.671Z,8.64
2023-01-22T03:45:43.504Z,8.72
2023-01-22T03:48:15.011Z,8.74
2023-01-22T03:50:43.575Z,8.64
2023-01-22T03:53:13.684Z,8.69
2023-01-22T03:55:43.342Z,8.68
2023-01-22T03:58:13.986Z,8.64
2023-01-22T04:00:42.681Z,8.67
2023-01-22T04:03:12.551Z,8.72
2023-01-22T04:05:41.043Z,8.67
2023-01-22T04:08:09.348Z,8.59
2023-01-22T04:10:41.362Z,8.69
2023-01-22T04:13:10.034Z,8.70
2023-01-22T04:15:47.278Z,8.71
2023-01-22T04:18:16.109Z,8.68
2023-01-22T04:20:44.489Z,8.63
2023-01-22T04:23:13.066Z,8.59
2023-01-22T04:25:43.096Z,8.66
2023-01-22T04:28:14.929Z,8.63
2023-01-22T04:30:49.311Z,8.62
2023-01-22T04:33:19.212Z,8.60
2023-01-22T04:35:52.778Z,8.56
2023-01-22T04:38:27.499Z,8.54
2023-01-22T04:40:57.623Z,8.55
2023-01-22T04:43:27.420Z,8.60
2023-01-22T04:46:02.279Z,8.61
2023-01-22T04:48:32.947Z,8.56
2023-01-22T04:51:08.587Z,8.59
2023-01-22T04:53:38.499Z,8.60
2023-01-22T04:56:09.011Z,8.67
2023-01-22T04:58:37.706Z,8.62
2023-01-22T05:01:06.288Z,8.62
2023-01-22T05:03:35.134Z,8.62
2023-01-22T05:06:05.272Z,8.63
2023-01-22T05:08:34.262Z,8.60
2023-01-22T05:11:10.530Z,8.63
2023-01-22T05:13:44.893Z,8.68
2023-01-22T05:16:15.772Z,8.79
2023-01-22T05:18:44.386Z,8.72
2023-01-22T05:21:15.050Z,8.74
2023-01-22T05:23:46.954Z,8.77
2023-01-22T05:26:20.128Z,8.70
2023-01-22T05:28:48.804Z,8.69
2023-01-22T05:31:17.445Z,8.64
2023-01-22T05:33:46.041Z,8.68
2023-01-22T05:36:14.656Z,8.65
2023-01-22T05:38:46.972Z,8.64
2023-01-22T05:41:16.268Z,8.69
2023-01-22T05:43:46.398Z,8.60
2023-01-22T05:46:15.405Z,8.56
2023-01-22T05:48:43.962Z,8.55
2023-01-22T05:51:15.791Z,8.50
2023-01-22T05:53:47.565Z,8.51
2023-01-22T05:56:16.374Z,8.48
2023-01-22T05:58:52.603Z,8.52
2023-01-22T06:01:21.373Z,8.58
2023-01-22T06:03:50.053Z,8.55
2023-01-22T06:06:19.851Z,8.51
2023-01-22T06:08:51.623Z,8.48
2023-01-22T06:11:21.459Z,8.51
2023-01-22T06:13:51.669Z,8.46
2023-01-22T06:16:25.213Z,8.49
2023-01-22T06:18:54.800Z,8.53
2023-01-22T06:21:23.451Z,8.51
2023-01-22T06:23:51.932Z,8.49
2023-01-22T06:26:20.972Z,8.51
2023-01-22T06:28:55.370Z,8.46
2023-01-22T06:31:24.129Z,8.47
2023-01-22T06:33:54.704Z,8.48
2023-01-22T06:36:23.344Z,8.45
2023-01-22T06:38:51.894Z,8.46
2023-01-22T06:41:26.542Z,8.46
2023-01-22T06:43:57.034Z,8.45
2023-01-22T06:46:26.856Z,8.50
2023-01-22T06:48:56.725Z,8.53
2023-01-22T06:51:32.034Z,8.55
2023-01-22T06:54:01.524Z,8.52
2023-01-22T06:56:32.498Z,8.56
2023-01-22T06:59:04.935Z,8.57
2023-01-22T07:01:34.826Z,8.54
2023-01-22T07:04:12.470Z,8.53
2023-01-22T07:06:42.103Z,8.55
2023-01-22T07:09:10.703Z,8.50
2023-01-22T07:11:39.252Z,8.53
2023-01-22T07:14:10.324Z,8.51
2023-01-22T07:16:38.939Z,8.56
2023-01-22T07:19:07.904Z,8.54
2023-01-22T07:21:37.646Z,8.58
2023-01-22T07:24:07.055Z,8.60
2023-01-22T07:26:39.183Z,8.62
2023-01-22T07:29:10.134Z,8.67
2023-01-22T07:31:38.778Z,8.64
2023-01-22T07:34:18.102Z,8.63
2023-01-22T07:36:48.670Z,8.58
2023-01-22T07:39:23.590Z,8.55
2023-01-22T07:41:52.202Z,8.50
2023-01-22T07:44:23.242Z,8.48
2023-01-22T07:46:53.063Z,8.44
2023-01-22T07:49:21.733Z,8.48
2023-01-22T07:51:50.350Z,8.49
2023-01-22T07:54:20.401Z,8.58
2023-01-22T07:56:56.783Z,8.60
2023-01-22T07:59:32.112Z,8.67
2023-01-22T08:02:03.699Z,8.73
2023-01-22T08:04:32.722Z,8.75
2023-01-22T08:07:13.744Z,8.75
2023-01-22T08:09:46.289Z,8.77
2023-01-22T08:12:17.288Z,8.76
2023-01-22T08:14:47.276Z,8.73
2023-01-22T08:17:15.845Z,8.78
2023-01-22T08:19:50.063Z,8.83
2023-01-22T08:22:25.967Z,8.86
2023-01-22T08:25:01.398Z,8.81
2023-01-22T08:27:35.421Z,8.81
2023-01-22T08:30:08.022Z,8.80
2023-01-22T08:32:47.139Z,8.84
2023-01-22T08:35:16.015Z,8.82
2023-01-22T08:37:45.656Z,8.85
2023-01-22T08:40:15.445Z,8.95
2023-01-22T08:42:44.111Z,9.00
2023-01-22T08:45:15.992Z,9.01
2023-01-22T08:47:44.782Z,8.96
2023-01-22T08:50:13.393Z,9.03
2023-01-22T08:52:43.114Z,9.03
2023-01-22T08:55:13.913Z,9.09
2023-01-22T08:57:42.769Z,9.07
2023-01-22T09:00:16.964Z,9.19
2023-01-22T09:02:46.798Z,9.19
2023-01-22T09:05:15.573Z,9.17
2023-01-22T09:07:45.426Z,9.19
2023-01-22T09:10:14.351Z,9.16
2023-01-22T09:12:43.092Z,9.18
2023-01-22T09:15:15.461Z,9.21
2023-01-22T09:17:46.166Z,9.25
2023-01-22T09:20:14.841Z,9.30
2023-01-22T09:22:46.536Z,9.30
2023-01-22T09:25:15.175Z,9.38
2023-01-22T09:27:50.543Z,9.38
2023-01-22T09:30:21.092Z,9.42
2023-01-22T09:32:57.107Z,9.47
2023-01-22T09:35:28.865Z,9.45
2023-01-22T09:37:57.683Z,9.46
2023-01-22T09:40:30.199Z,9.46
2023-01-22T09:43:06.630Z,9.50
2023-01-22T09:45:40.804Z,9.50
2023-01-22T09:48:17.046Z,9.47
2023-01-22T09:50:46.868Z,9.46
2023-01-22T09:53:22.657Z,9.48
2023-01-22T09:55:57.882Z,9.52
2023-01-22T09:58:27.923Z,9.48
2023-01-22T10:01:08.743Z,9.53
2023-01-22T10:03:40.856Z,9.57
2023-01-22T10:06:13.899Z,9.66
2023-01-22T10:08:54.266Z,9.75
2023-01-22T10:11:22.906Z,9.80
2023-01-22T10:13:57.713Z,9.84
2023-01-22T10:16:30.427Z,9.87
2023-01-22T10:19:04.438Z,9.90
2023-01-22T10:21:41.036Z,9.93
2023-01-22T10:24:12.600Z,9.94
2023-01-22T10:26:44.667Z,9.99
2023-01-22T10:29:22.444Z,9.96
2023-01-22T10:31:56.353Z,9.97
2023-01-22T10:34:31.182Z,9.99
2023-01-22T10:37:03.842Z,10.01
2023-01-22T10:39:41.887Z,10.02
2023-01-22T10:42:18.826Z,10.04
2023-01-22T10:44:48.434Z,10.04
2023-01-22T10:47:22.894Z,10.09
2023-01-22T10:50:04.824Z,10.09
2023-01-22T10:52:38.262Z,10.08
2023-01-22T10:55:08.849Z,10.08
2023-01-22T10:57:40.455Z,10.11
2023-01-22T11:00:24.575Z,10.11
2023-01-22T11:02:56.919Z,10.15
2023-01-22T11:05:27.585Z,10.11
2023-01-22T11:08:00.269Z,10.13
2023-01-22T11:10:41.043Z,10.10
2023-01-22T11:13:14.932Z,10.13
2023-01-22T11:15:49.941Z,10.14
2023-01-22T11:18:32.883Z,10.13
2023-01-22T11:21:12.186Z,10.12
2023-01-22T11:23:49.035Z,10.13
2023-01-22T11:26:28.943Z,10.13
2023-01-22T11:29:09.033Z,10.16
2023-01-22T11:31:53.389Z,10.17
2023-01-22T11:34:41.221Z,10.24
2023-01-22T11:37:15.388Z,10.25
2023-01-22T11:40:13.664Z,10.29
2023-01-22T11:42:59.049Z,10.31
2023-01-22T11:45:41.493Z,10.31
2023-01-22T11:48:24.874Z,10.33
2023-01-22T11:51:05.448Z,10.34
2023-01-22T11:53:49.974Z,10.37
2023-01-22T11:56:41.680Z,10.39
2023-01-22T11:59:15.765Z,10.41
2023-01-22T12:02:20.064Z,10.47
2023-01-22T12:05:09.200Z,10.50
2023-01-22T12:08:13.451Z,10.51
2023-01-22T12:11:08.485Z,10.56
2023-01-22T12:13:55.290Z,10.57
2023-01-22T12:16:33.677Z,10.57
2023-01-22T12:19:37.803Z,10.56
2023-01-22T12:22:13.143Z,10.52
2023-01-22T12:24:48.747Z,10.54
2023-01-22T12:27:24.249Z,10.49
2023-01-22T12:29:56.955Z,10.55
2023-01-22T12:32:30.556Z,10.54
2023-01-22T12:35:06.861Z,10.55
2023-01-22T12:37:42.006Z,10.56
2023-01-22T12:40:41.828Z,10.59
2023-01-22T12:43:11.556Z,10.60
2023-01-22T12:45:45.417Z,10.63
2023-01-22T12:48:25.480Z,10.59
2023-01-22T12:50:56.415Z,10.60
2023-01-22T12:53:29.156Z,10.64
2023-01-22T12:56:07.528Z,10.64
2023-01-22T12:58:44.118Z,10.66
2023-01-22T13:01:25.462Z,10.70
2023-01-22T13:04:02.521Z,10.74
2023-01-22T13:06:38.517Z,10.79
2023-01-22T13:09:25.444Z,10.82
2023-01-22T13:11:55.483Z,10.84
2023-01-22T13:14:28.178Z,10.85
2023-01-22T13:16:59.986Z,10.86
2023-01-22T13:19:39.178Z,10.80
2023-01-22T13:22:14.950Z,10.90
2023-01-22T13:24:50.936Z,10.66
2023-01-22T13:27:30.953Z,10.53
2023-01-22T13:30:09.383Z,10.39
2023-01-22T13:32:38.128Z,10.38
2023-01-22T13:35:08.505Z,10.38
2023-01-22T13:37:38.965Z,10.46
2023-01-22T13:40:16.178Z,10.59
2023-01-22T13:42:48.097Z,10.72
2023-01-22T13:45:20.474Z,10.76
2023-01-22T13:47:49.204Z,10.79
2023-01-22T13:50:23.415Z,10.82
2023-01-22T13:52:52.456Z,10.80
2023-01-22T13:55:23.879Z,10.80
2023-01-22T13:57:55.169Z,10.77
2023-01-22T14:00:27.279Z,10.76
2023-01-22T14:02:56.403Z,10.75
2023-01-22T14:05:27.352Z,10.74
2023-01-22T14:08:07.828Z,10.68
2023-01-22T14:10:37.769Z,10.73
2023-01-22T14:13:10.894Z,10.66
2023-01-22T14:15:41.272Z,10.67
2023-01-22T14:18:11.960Z,10.61
2023-01-22T14:20:42.002Z,10.64
2023-01-22T14:23:11.101Z,10.63
2023-01-22T14:25:40.546Z,10.67
2023-01-22T14:28:11.114Z,10.61
2023-01-22T14:30:39.743Z,10.60
2023-01-22T14:33:08.643Z,10.59
2023-01-22T14:35:37.411Z,10.55
2023-01-22T14:38:05.992Z,10.54
2023-01-22T14:40:35.126Z,10.54
2023-01-22T14:43:05.081Z,10.52
2023-01-22T14:45:35.483Z,10.51
2023-01-22T14:48:04.775Z,10.51
2023-01-22T14:50:36.710Z,10.56
2023-01-22T14:53:06.480Z,10.60
2023-01-22T14:55:35.924Z,10.56
2023-01-22T14:58:07.745Z,10.53
2023-01-22T15:00:38.392Z,10.51
2023-01-22T15:03:07.734Z,10.50
2023-01-22T15:05:36.517Z,10.48
2023-01-22T15:08:05.474Z,10.52
2023-01-22T15:10:34.354Z,10.53
2023-01-22T15:13:03.445Z,10.54
2023-01-22T15:15:32.217Z,10.55
2023-01-22T15:18:03.329Z,10.54
2023-01-22T15:20:32.125Z,10.49
2023-01-22T15:23:00.983Z,10.48
2023-01-22T15:25:29.840Z,10.46
2023-01-22T15:27:58.474Z,10.46
2023-01-22T15:30:27.337Z,10.42
2023-01-22T15:32:56.584Z,10.43
2023-01-22T15:35:26.701Z,10.47
2023-01-22T15:37:55.324Z,10.45
2023-01-22T15:40:23.795Z,10.50
2023-01-22T15:42:52.488Z,10.49
2023-01-22T15:45:21.495Z,10.42
2023-01-22T15:47:50.251Z,10.46
2023-01-22T15:50:21.600Z,10.49
2023-01-22T15:52:55.189Z,10.48
2023-01-22T15:55:23.747Z,10.50
2023-01-22T15:57:52.462Z,10.50
2023-01-22T16:00:22.858Z,10.51
2023-01-22T16:02:51.693Z,10.49
2023-01-22T16:05:21.451Z,10.45
2023-01-22T16:07:52.614Z,10.42
2023-01-22T16:10:21.929Z,10.42
2023-01-22T16:12:50.535Z,10.42
2023-01-22T16:15:19.428Z,10.41
2023-01-22T16:17:48.301Z,10.45
2023-01-22T16:20:17.636Z,10.43
2023-01-22T16:22:46.965Z,10.45
2023-01-22T16:25:16.908Z,10.42
2023-01-22T16:27:46.550Z,10.39
2023-01-22T16:30:16.826Z,10.33
2023-01-22T16:32:46.396Z,10.27
2023-01-22T16:35:15.120Z,10.24
2023-01-22T16:37:45.615Z,10.21
2023-01-22T16:40:18.544Z,10.18
2023-01-22T16:43:00.353Z,10.17
2023-01-22T16:45:28.898Z,10.16
2023-01-22T16:47:58.308Z,10.16
2023-01-22T16:50:26.874Z,10.21
2023-01-22T16:52:55.470Z,10.17
2023-01-22T16:55:25.777Z,10.22
2023-01-22T16:57:54.420Z,10.19
2023-01-22T17:00:23.372Z,10.15
2023-01-22T17:02:51.999Z,10.16
2023-01-22T17:05:20.899Z,10.11
2023-01-22T17:07:49.656Z,10.08
2023-01-22T17:10:18.830Z,10.04
2023-01-22T17:12:49.409Z,10.03
2023-01-22T17:15:18.635Z,10.04
2023-01-22T17:17:47.119Z,10.02
2023-01-22T17:20:16.970Z,10.01
2023-01-22T17:22:48.617Z,9.99
2023-01-22T17:25:17.554Z,9.96
2023-01-22T17:27:46.144Z,9.93
2023-01-22T17:30:18.321Z,10.00
2023-01-22T17:32:47.850Z,9.96
2023-01-22T17:35:17.533Z,9.91
2023-01-22T17:37:47.600Z,9.91
2023-01-22T17:40:17.488Z,9.83
2023-01-22T17:42:46.258Z,9.81
2023-01-22T17:45:16.499Z,9.79
2023-01-22T17:47:45.840Z,9.80
2023-01-22T17:50:14.561Z,9.81
2023-01-22T17:52:44.257Z,9.82
2023-01-22T17:55:15.720Z,9.78
2023-01-22T17:57:45.173Z,9.63
2023-01-22T18:00:19.267Z,9.50
2023-01-22T18:02:50.336Z,9.38
2023-01-22T18:05:19.327Z,9.28
2023-01-22T18:07:47.910Z,9.19
2023-01-22T18:10:16.699Z,9.13
2023-01-22T18:12:45.884Z,9.05
2023-01-22T18:15:14.592Z,8.99
2023-01-22T18:17:44.789Z,9.00
2023-01-22T18:20:13.699Z,8.98
2023-01-22T18:22:42.319Z,8.97
2023-01-22T18:25:11.388Z,8.94
2023-01-22T18:27:39.826Z,8.91
2023-01-22T18:30:10.207Z,8.89
2023-01-22T18:32:38.837Z,8.89
2023-01-22T18:35:11.073Z,8.89
2023-01-22T18:37:40.855Z,8.94
2023-01-22T18:40:11.033Z,8.91
2023-01-22T18:42:39.662Z,8.87
2023-01-22T18:45:10.075Z,8.86
2023-01-22T18:47:38.740Z,8.86
2023-01-22T18:50:12.450Z,8.89
2023-01-22T18:52:42.195Z,8.86
2023-01-22T18:55:11.594Z,8.88
2023-01-22T18:57:43.316Z,8.88
2023-01-22T19:00:14.178Z,8.87
2023-01-22T19:02:43.512Z,8.88
2023-01-22T19:05:13.752Z,8.86
2023-01-22T19:07:42.520Z,8.85
2023-01-22T19:10:13.173Z,8.83
2023-01-22T19:12:41.816Z,8.86
2023-01-22T19:15:11.887Z,8.84
2023-01-22T19:17:40.810Z,8.83
2023-01-22T19:20:13.339Z,8.81
2023-01-22T19:22:44.044Z,8.82
2023-01-22T19:25:12.915Z,8.80
2023-01-22T19:27:41.734Z,8.79
2023-01-22T19:30:11.970Z,8.73
2023-01-22T19:32:40.693Z,8.72
2023-01-22T19:35:11.016Z,8.70
2023-01-22T19:37:40.207Z,8.65
2023-01-22T19:40:11.620Z,8.65
2023-01-22T19:42:42.092Z,8.64
2023-01-22T19:45:11.297Z,8.58
2023-01-22T19:47:39.982Z,8.56
2023-01-22T19:50:09.927Z,8.57
2023-01-22T19:52:38.837Z,8.55
2023-01-22T19:55:08.326Z,8.51
2023-01-22T19:57:38.718Z,8.50
2023-01-22T20:00:09.396Z,8.47
2023-01-22T20:02:38.300Z,8.41
2023-01-22T20:05:08.202Z,8.44
2023-01-22T20:07:36.954Z,8.45
2023-01-22T20:10:07.199Z,8.45
2023-01-22T20:12:35.803Z,8.50
2023-01-22T20:15:07.314Z,8.51
2023-01-22T20:17:36.871Z,8.50
2023-01-22T20:20:07.906Z,8.52
2023-01-22T20:22:36.668Z,8.51
2023-01-22T20:25:09.949Z,8.57
2023-01-22T20:27:38.741Z,8.58
2023-01-22T20:30:11.956Z,8.56
2023-01-22T20:32:43.749Z,8.53
2023-01-22T20:35:15.762Z,8.54
2023-01-22T20:37:44.395Z,8.55
2023-01-22T20:40:15.023Z,8.56
2023-01-22T20:42:43.990Z,8.55
2023-01-22T20:45:14.228Z,8.56
2023-01-22T20:47:43.258Z,8.55
2023-01-22T20:50:13.388Z,8.58
2023-01-22T20:52:42.119Z,8.57
2023-01-22T20:55:13.826Z,8.54
2023-01-22T20:57:42.847Z,8.53
2023-01-22T21:00:15.385Z,8.48
2023-01-22T21:02:44.227Z,8.46
2023-01-22T21:05:13.010Z,8.48
2023-01-22T21:07:41.598Z,8.49
2023-01-22T21:10:13.683Z,8.49
2023-01-22T21:12:42.884Z,8.50
2023-01-22T21:15:12.437Z,8.51
2023-01-22T21:17:42.747Z,8.53
2023-01-22T21:20:14.753Z,8.55
2023-01-22T21:22:43.725Z,8.56
2023-01-22T21:25:12.514Z,8.58
2023-01-22T21:27:41.175Z,8.62
2023-01-22T21:30:11.114Z,8.60
2023-01-22T21:32:40.783Z,8.60
2023-01-22T21:35:11.854Z,8.62
2023-01-22T21:37:40.585Z,8.62
2023-01-22T21:40:13.491Z,8.61
2023-01-22T21:43:00.151Z,8.58
2023-01-22T21:45:45.883Z,8.63
2023-01-22T21:48:14.719Z,8.67
2023-01-22T21:50:45.498Z,8.66
2023-01-22T21:53:14.287Z,8.66
2023-01-22T21:55:51.698Z,8.67
2023-01-22T21:58:20.431Z,8.68
2023-01-22T22:00:49.388Z,8.68
2023-01-22T22:03:19.976Z,8.68
2023-01-22T22:06:02.020Z,8.68
2023-01-22T22:08:31.567Z,8.67
2023-01-22T22:11:00.345Z,8.67
2023-01-22T22:13:29.065Z,8.68
2023-01-22T22:16:00.778Z,8.68
2023-01-22T22:18:29.786Z,8.68
2023-01-22T22:21:05.373Z,8.69
2023-01-22T22:23:35.570Z,8.67
2023-01-22T22:26:05.713Z,8.67
2023-01-22T22:28:38.557Z,8.69
2023-01-22T22:31:12.087Z,8.71
2023-01-22T22:33:41.115Z,8.70
2023-01-22T22:36:13.425Z,8.70
2023-01-22T22:38:42.186Z,8.72
2023-01-22T22:41:14.091Z,8.72
2023-01-22T22:43:44.934Z,8.73
2023-01-22T22:46:17.695Z,8.73
2023-01-22T22:48:47.996Z,8.72
2023-01-22T22:51:20.848Z,8.72
2023-01-22T22:53:53.032Z,8.73
2023-01-22T22:56:23.441Z,8.74
2023-01-22T22:58:52.625Z,8.73
2023-01-22T23:01:23.737Z,8.74
2023-01-22T23:03:53.744Z,8.74
2023-01-22T23:06:26.404Z,8.75
2023-01-22T23:08:57.566Z,8.78
2023-01-22T23:11:29.126Z,8.80
2023-01-22T23:14:01.625Z,8.77
2023-01-22T23:16:33.070Z,8.78
2023-01-22T23:19:04.264Z,8.78
2023-01-22T23:21:36.913Z,8.80
2023-01-22T23:24:07.338Z,8.79
2023-01-22T23:26:36.235Z,8.80
2023-01-22T23:29:06.659Z,8.80
2023-01-22T23:31:38.475Z,8.77
2023-01-22T23:34:09.595Z,8.75
2023-01-22T23:36:41.221Z,8.76
2023-01-22T23:39:10.075Z,8.73
2023-01-22T23:41:38.801Z,8.74
2023-01-22T23:44:07.381Z,8.74
2023-01-22T23:46:36.871Z,8.73
2023-01-22T23:49:05.993Z,8.72
2023-01-22T23:51:34.886Z,8.75
2023-01-22T23:54:06.254Z,8.75
2023-01-22T23:56:35.453Z,8.72
2023-01-22T23:59:04.047Z,8.74
